createdAt,value
2023-03-31T00:01:00.955Z,4.67
2023-03-31T00:03:29.613Z,4.33
2023-03-31T00:05:58.867Z,4.50
2023-03-31T00:08:30.760Z,4.60
2023-03-31T00:11:01.543Z,4.40
2023-03-31T00:13:32.366Z,4.40
2023-03-31T00:16:02.499Z,4.30
2023-03-31T00:18:31.907Z,4.87
2023-03-31T00:21:09.650Z,5.20
2023-03-31T00:23:37.717Z,4.70
2023-03-31T00:26:06.477Z,4.90
2023-03-31T00:28:36.381Z,4.67
2023-03-31T00:31:05.232Z,5.27
2023-03-31T00:33:33.504Z,4.93
2023-03-31T00:36:02.356Z,4.90
2023-03-31T00:38:31.195Z,5.00
2023-03-31T00:40:59.670Z,4.87
2023-03-31T00:43:33.253Z,4.87
2023-03-31T00:46:08.906Z,4.37
2023-03-31T00:48:39.384Z,4.47
2023-03-31T00:51:09.119Z,4.53
2023-03-31T00:53:38.621Z,4.97
2023-03-31T00:56:11.215Z,4.50
2023-03-31T00:58:43.962Z,4.60
2023-03-31T01:01:18.134Z,4.70
2023-03-31T01:03:48.223Z,4.93
2023-03-31T01:06:21.097Z,4.77
2023-03-31T01:08:52.573Z,4.70
2023-03-31T01:11:23.278Z,5.07
2023-03-31T01:13:56.334Z,6.10
2023-03-31T01:16:26.112Z,5.00
2023-03-31T01:18:57.646Z,5.00
2023-03-31T01:22:05.655Z,4.87
2023-03-31T01:25:08.697Z,5.77
2023-03-31T01:27:54.243Z,4.97
2023-03-31T01:30:58.513Z,5.77
2023-03-31T01:34:01.522Z,5.13
2023-03-31T01:36:55.149Z,5.03
2023-03-31T01:39:44.177Z,5.03
2023-03-31T01:42:16.407Z,4.53
2023-03-31T01:44:51.960Z,6.07
2023-03-31T01:47:25.776Z,5.80
2023-03-31T01:50:03.501Z,7.10
2023-03-31T01:52:39.758Z,7.20
2023-03-31T01:55:13.936Z,6.97
2023-03-31T01:57:46.875Z,7.00
2023-03-31T02:00:18.418Z,6.50
2023-03-31T02:02:51.654Z,6.37
2023-03-31T02:05:23.700Z,6.80
2023-03-31T02:07:56.411Z,6.10
2023-03-31T02:10:28.018Z,5.80
2023-03-31T02:12:58.261Z,5.53
2023-03-31T02:15:31.410Z,7.20
2023-03-31T02:18:06.332Z,6.13
2023-03-31T02:20:36.899Z,5.53
2023-03-31T02:23:06.615Z,5.00
2023-03-31T02:25:46.484Z,5.27
2023-03-31T02:28:20.016Z,5.13
2023-03-31T02:30:58.131Z,5.20
2023-03-31T02:33:26.402Z,5.23
2023-03-31T02:35:54.722Z,5.27
2023-03-31T02:38:25.851Z,5.33
2023-03-31T02:40:55.647Z,5.97
2023-03-31T02:43:23.805Z,6.23
2023-03-31T02:45:53.303Z,6.00
2023-03-31T02:48:24.188Z,6.63
2023-03-31T02:51:29.778Z,6.70
2023-03-31T02:54:19.261Z,6.30
2023-03-31T02:57:03.284Z,6.63
2023-03-31T02:59:42.819Z,6.40
2023-03-31T03:02:20.519Z,5.93
2023-03-31T03:05:08.794Z,6.43
2023-03-31T03:07:46.349Z,5.87
2023-03-31T03:10:21.271Z,5.87
2023-03-31T03:12:59.396Z,6.73
2023-03-31T03:15:33.074Z,6.30
2023-03-31T03:18:01.417Z,6.13
2023-03-31T03:20:29.711Z,6.70
2023-03-31T03:22:57.900Z,6.90
2023-03-31T03:25:26.360Z,6.83
2023-03-31T03:27:55.847Z,7.27
2023-03-31T03:30:24.852Z,6.57
2023-03-31T03:32:54.783Z,6.77
2023-03-31T03:35:23.020Z,7.20
2023-03-31T03:37:51.169Z,6.27
2023-03-31T03:40:20.991Z,8.47
2023-03-31T03:42:49.179Z,6.93
2023-03-31T03:45:18.925Z,7.30
2023-03-31T03:47:47.652Z,7.03
2023-03-31T03:50:35.976Z,7.23
2023-03-31T03:53:04.191Z,7.87
2023-03-31T03:55:34.657Z,7.23
2023-03-31T03:58:02.753Z,6.87
2023-03-31T04:00:32.588Z,7.07
2023-03-31T04:03:01.956Z,8.33
2023-03-31T04:05:30.287Z,7.60
2023-03-31T04:07:58.477Z,7.50
2023-03-31T04:10:27.153Z,7.27
2023-03-31T04:12:59.579Z,7.47
2023-03-31T04:15:30.776Z,8.70
2023-03-31T04:18:00.764Z,8.53
2023-03-31T04:20:30.799Z,8.30
2023-03-31T04:22:59.502Z,7.90
2023-03-31T04:25:30.971Z,7.93
2023-03-31T04:27:59.600Z,9.20
2023-03-31T04:30:31.868Z,9.20
2023-03-31T04:33:04.258Z,8.67
2023-03-31T04:35:49.722Z,9.20
2023-03-31T04:38:20.224Z,9.30
2023-03-31T04:40:50.080Z,8.87
2023-03-31T04:43:19.383Z,9.37
2023-03-31T04:45:48.033Z,9.67
2023-03-31T04:48:17.965Z,9.73
2023-03-31T04:50:48.404Z,8.93
2023-03-31T04:53:18.008Z,8.90
2023-03-31T04:55:46.406Z,8.70
2023-03-31T04:58:14.584Z,8.30
2023-03-31T05:00:43.070Z,9.77
2023-03-31T05:03:11.747Z,9.60
2023-03-31T05:05:41.436Z,9.77
2023-03-31T05:08:11.694Z,10.97
2023-03-31T05:10:40.846Z,11.50
2023-03-31T05:13:10.941Z,13.30
2023-03-31T05:15:40.041Z,9.47
2023-03-31T05:18:08.687Z,10.97
2023-03-31T05:20:36.917Z,10.57
2023-03-31T05:23:07.333Z,10.00
2023-03-31T05:25:37.772Z,8.17
2023-03-31T05:28:10.041Z,9.40
2023-03-31T05:30:38.201Z,7.87
2023-03-31T05:33:06.922Z,7.97
2023-03-31T05:35:35.128Z,6.30
2023-03-31T05:38:03.366Z,6.53
2023-03-31T05:40:32.986Z,7.53
2023-03-31T05:43:01.238Z,6.90
2023-03-31T05:45:29.870Z,7.53
2023-03-31T05:47:58.173Z,7.90
2023-03-31T05:50:26.357Z,7.33
2023-03-31T05:52:54.731Z,7.17
2023-03-31T05:55:23.115Z,6.63
2023-03-31T05:57:53.184Z,8.17
2023-03-31T06:00:22.018Z,8.80
2023-03-31T06:02:50.204Z,7.13
2023-03-31T06:05:18.698Z,7.20
2023-03-31T06:07:47.277Z,8.70
2023-03-31T06:10:15.673Z,8.27
2023-03-31T06:12:44.231Z,8.90
2023-03-31T06:15:13.871Z,8.57
2023-03-31T06:17:42.339Z,9.50
2023-03-31T06:20:24.648Z,10.17
2023-03-31T06:22:56.920Z,11.23
2023-03-31T06:25:25.224Z,11.47
2023-03-31T06:27:53.508Z,11.70
2023-03-31T06:30:23.383Z,11.47
2023-03-31T06:32:51.840Z,12.77
2023-03-31T06:35:20.478Z,13.30
2023-03-31T06:37:49.277Z,12.53
2023-03-31T06:40:17.965Z,14.03
2023-03-31T06:42:46.122Z,12.80
2023-03-31T06:45:14.714Z,13.53
2023-03-31T06:47:44.390Z,17.37
2023-03-31T06:50:12.729Z,15.43
2023-03-31T06:52:42.126Z,15.33
2023-03-31T06:55:11.155Z,13.60
2023-03-31T06:57:39.383Z,11.97
2023-03-31T07:00:09.451Z,10.30
2023-03-31T07:02:38.238Z,11.50
2023-03-31T07:05:09.104Z,12.80
2023-03-31T07:07:37.343Z,11.17
2023-03-31T07:10:07.140Z,9.93
2023-03-31T07:12:35.654Z,11.77
2023-03-31T07:17:51.275Z,9.73
2023-03-31T07:20:21.634Z,10.23
2023-03-31T07:22:50.399Z,9.80
2023-03-31T07:25:20.021Z,10.90
2023-03-31T07:27:48.897Z,9.73
2023-03-31T07:30:19.929Z,9.83
2023-03-31T07:32:49.798Z,10.80
2023-03-31T07:35:20.087Z,11.70
2023-03-31T07:37:51.283Z,10.87
2023-03-31T07:40:22.153Z,11.20
2023-03-31T07:42:52.534Z,10.20
2023-03-31T07:45:25.330Z,11.97
2023-03-31T07:47:54.174Z,12.03
2023-03-31T07:50:23.764Z,12.20
2023-03-31T07:52:54.163Z,12.60
2023-03-31T07:55:23.885Z,12.90
2023-03-31T07:57:52.391Z,17.63
2023-03-31T08:00:21.545Z,13.13
2023-03-31T08:02:50.339Z,10.87
2023-03-31T08:05:21.622Z,11.67
2023-03-31T08:07:51.551Z,11.00
2023-03-31T08:10:23.639Z,11.93
2023-03-31T08:12:53.441Z,12.07
2023-03-31T08:15:21.894Z,11.67
2023-03-31T08:17:50.684Z,11.67
2023-03-31T08:20:18.943Z,11.07
2023-03-31T08:22:47.867Z,11.90
2023-03-31T08:25:16.477Z,11.33
2023-03-31T08:27:48.928Z,10.10
2023-03-31T08:30:17.980Z,10.60
2023-03-31T08:32:46.514Z,10.90
2023-03-31T08:35:16.094Z,13.27
2023-03-31T08:37:44.575Z,11.37
2023-03-31T08:40:18.091Z,11.10
2023-03-31T08:42:50.955Z,11.73
2023-03-31T08:45:23.606Z,11.37
2023-03-31T08:47:58.727Z,11.60
2023-03-31T08:50:31.836Z,11.63
2023-03-31T08:53:06.060Z,11.90
2023-03-31T08:55:43.210Z,11.03
2023-03-31T08:58:22.339Z,11.57
2023-03-31T09:00:58.644Z,11.33
2023-03-31T09:03:34.972Z,9.93
2023-03-31T09:06:09.053Z,7.43
2023-03-31T09:08:39.279Z,5.90
2023-03-31T09:11:20.418Z,6.50
2023-03-31T09:14:19.970Z,5.55
2023-03-31T09:16:54.840Z,6.30
2023-03-31T09:19:34.855Z,5.70
2023-03-31T09:22:05.214Z,3.85
2023-03-31T09:24:40.907Z,3.35
2023-03-31T09:27:13.408Z,3.30
2023-03-31T09:29:47.326Z,4.13
2023-03-31T09:32:17.968Z,3.72
2023-03-31T09:34:48.094Z,3.53
2023-03-31T09:37:16.294Z,2.90
2023-03-31T09:39:44.648Z,3.15
2023-03-31T09:42:14.554Z,4.15
2023-03-31T09:44:47.449Z,3.55
2023-03-31T09:47:22.968Z,3.25
2023-03-31T09:49:53.649Z,3.17
2023-03-31T09:52:30.175Z,3.05
2023-03-31T09:55:02.277Z,3.78
2023-03-31T09:57:34.124Z,4.28
2023-03-31T10:00:16.550Z,2.97
2023-03-31T10:02:51.070Z,3.63
2023-03-31T10:05:31.099Z,3.92
2023-03-31T10:08:27.478Z,3.50
2023-03-31T10:10:57.474Z,3.70
2023-03-31T10:13:29.756Z,4.35
2023-03-31T10:16:08.731Z,4.13
2023-03-31T10:18:38.871Z,4.80
2023-03-31T10:21:09.146Z,4.45
2023-03-31T10:23:37.691Z,3.85
2023-03-31T10:26:06.880Z,4.35
2023-03-31T10:28:37.319Z,3.75
2023-03-31T10:31:09.926Z,4.50
2023-03-31T10:33:45.822Z,4.93
2023-03-31T10:36:22.638Z,4.47
2023-03-31T10:38:52.825Z,4.70
2023-03-31T10:41:23.331Z,4.68
2023-03-31T10:43:53.087Z,4.60
2023-03-31T10:46:40.878Z,4.13
2023-03-31T10:49:17.365Z,4.55
2023-03-31T10:51:56.277Z,3.92
2023-03-31T10:54:24.740Z,4.18
2023-03-31T10:56:56.223Z,4.10
2023-03-31T10:59:54.027Z,4.47
2023-03-31T11:02:46.867Z,4.53
2023-03-31T11:05:18.906Z,4.43
2023-03-31T11:08:00.674Z,4.30
2023-03-31T11:10:40.735Z,4.00
2023-03-31T11:13:18.464Z,4.15
2023-03-31T11:15:56.094Z,4.25
2023-03-31T11:18:43.656Z,4.32
2023-03-31T11:21:21.564Z,4.63
2023-03-31T11:23:59.009Z,4.45
2023-03-31T11:26:39.598Z,4.38
2023-03-31T11:29:21.078Z,4.43
2023-03-31T11:31:56.627Z,4.30
2023-03-31T11:34:44.453Z,3.90
2023-03-31T11:37:35.615Z,4.75
2023-03-31T11:40:23.061Z,4.43
2023-03-31T11:42:56.331Z,4.65
2023-03-31T11:45:29.042Z,4.38
2023-03-31T11:48:04.904Z,3.60
2023-03-31T11:50:40.098Z,4.38
2023-03-31T11:53:17.161Z,4.18
2023-03-31T11:55:48.697Z,3.50
2023-03-31T11:58:20.193Z,3.42
2023-03-31T12:00:53.074Z,3.67
2023-03-31T12:03:26.161Z,3.92
2023-03-31T12:06:03.318Z,3.97
2023-03-31T12:08:38.573Z,3.47
2023-03-31T12:11:28.120Z,3.58
2023-03-31T12:14:03.378Z,3.60
2023-03-31T12:16:41.791Z,3.65
2023-03-31T12:19:17.556Z,3.72
2023-03-31T12:21:52.954Z,3.35
2023-03-31T12:24:21.276Z,3.40
2023-03-31T12:27:01.066Z,3.45
2023-03-31T12:29:34.223Z,2.75
2023-03-31T12:32:07.060Z,3.08
2023-03-31T12:34:44.434Z,3.20
2023-03-31T12:37:48.200Z,2.90
2023-03-31T12:40:28.455Z,3.30
2023-03-31T12:43:13.226Z,2.60
2023-03-31T12:45:48.436Z,2.30
2023-03-31T12:48:37.672Z,2.45
2023-03-31T12:51:18.817Z,1.38
2023-03-31T12:54:02.733Z,1.70
2023-03-31T12:57:15.566Z,1.70
2023-03-31T12:59:46.095Z,2.72
2023-03-31T13:02:25.443Z,2.33
2023-03-31T13:04:55.178Z,2.17
2023-03-31T13:07:50.303Z,1.85
2023-03-31T13:10:29.579Z,2.00
2023-03-31T13:13:03.284Z,2.35
2023-03-31T13:15:32.954Z,2.10
2023-03-31T13:18:06.744Z,1.80
2023-03-31T13:20:38.737Z,2.17
2023-03-31T13:23:16.126Z,2.03
2023-03-31T13:25:51.462Z,1.70
2023-03-31T13:28:43.474Z,2.15
2023-03-31T13:31:13.998Z,1.83
2023-03-31T13:33:48.524Z,2.30
2023-03-31T13:36:31.953Z,2.10
2023-03-31T13:39:16.790Z,1.60
2023-03-31T13:41:54.943Z,1.70
2023-03-31T13:44:56.850Z,2.03
2023-03-31T13:47:50.919Z,2.25
2023-03-31T13:50:38.463Z,2.25
2023-03-31T13:53:20.286Z,1.98
2023-03-31T13:56:11.642Z,2.67
2023-03-31T13:59:05.367Z,2.50
2023-03-31T14:01:59.218Z,2.50
2023-03-31T14:05:04.604Z,2.30
2023-03-31T14:07:37.330Z,2.13
2023-03-31T14:10:07.496Z,2.40
2023-03-31T14:12:38.653Z,2.38
2023-03-31T14:15:21.333Z,2.45
2023-03-31T14:17:49.782Z,4.63
2023-03-31T14:20:33.471Z,2.88
2023-03-31T14:23:13.414Z,2.83
2023-03-31T14:25:50.923Z,2.83
2023-03-31T14:28:41.723Z,2.78
2023-03-31T14:31:21.788Z,2.72
2023-03-31T14:34:08.563Z,2.50
2023-03-31T14:36:46.846Z,3.40
2023-03-31T14:39:20.066Z,2.45
2023-03-31T14:41:54.904Z,3.13
2023-03-31T14:44:24.275Z,2.97
2023-03-31T14:46:54.075Z,4.53
2023-03-31T14:49:26.559Z,2.40
2023-03-31T14:51:57.396Z,2.90
2023-03-31T14:54:28.638Z,2.67
2023-03-31T14:57:02.258Z,2.10
2023-03-31T14:59:34.521Z,2.33
2023-03-31T15:02:06.321Z,2.13
2023-03-31T15:04:45.260Z,1.98
2023-03-31T15:07:14.701Z,2.67
2023-03-31T15:09:49.700Z,2.72
2023-03-31T15:12:21.064Z,2.50
2023-03-31T15:14:52.619Z,2.47
2023-03-31T15:17:26.425Z,2.20
2023-03-31T15:19:59.656Z,2.35
2023-03-31T15:22:31.231Z,2.13
2023-03-31T15:24:59.912Z,2.20
2023-03-31T15:27:37.748Z,2.80
2023-03-31T15:30:09.273Z,2.15
2023-03-31T15:32:42.789Z,2.42
2023-03-31T15:35:22.840Z,2.20
2023-03-31T15:37:53.529Z,2.30
2023-03-31T15:40:25.010Z,2.30
2023-03-31T15:45:50.674Z,2.65
2023-03-31T15:48:23.644Z,2.20
2023-03-31T15:50:53.416Z,2.90
2023-03-31T15:53:28.562Z,2.63
2023-03-31T15:55:59.952Z,2.70
2023-03-31T15:58:54.422Z,2.50
2023-03-31T16:01:24.379Z,2.38
2023-03-31T16:03:56.752Z,2.55
2023-03-31T16:06:39.923Z,2.50
2023-03-31T16:09:09.653Z,2.47
2023-03-31T16:11:43.210Z,2.72
2023-03-31T16:14:20.238Z,2.50
2023-03-31T16:16:53.081Z,2.40
2023-03-31T16:19:27.454Z,2.40
2023-03-31T16:21:59.707Z,2.40
2023-03-31T16:24:32.413Z,2.67
2023-03-31T16:27:06.418Z,2.75
2023-03-31T16:29:35.705Z,3.25
2023-03-31T16:32:12.688Z,3.30
2023-03-31T16:34:57.233Z,2.83
2023-03-31T16:37:29.009Z,2.38
2023-03-31T16:39:58.347Z,2.72
2023-03-31T16:42:27.341Z,3.42
2023-03-31T16:45:12.692Z,3.20
2023-03-31T16:47:44.651Z,3.72
2023-03-31T16:50:15.848Z,2.65
2023-03-31T16:52:45.493Z,3.50
2023-03-31T16:55:13.805Z,4.32
2023-03-31T16:57:42.197Z,3.08
2023-03-31T17:00:11.903Z,3.78
2023-03-31T17:02:40.125Z,3.70
2023-03-31T17:05:13.104Z,3.60
2023-03-31T17:07:43.421Z,3.25
2023-03-31T17:10:12.999Z,4.72
2023-03-31T17:12:42.734Z,4.82
2023-03-31T17:15:12.115Z,4.68
2023-03-31T17:17:40.428Z,7.65
2023-03-31T17:20:10.535Z,6.60
2023-03-31T17:22:38.608Z,20.52
2023-03-31T17:25:09.212Z,14.60
2023-03-31T17:27:37.768Z,14.35
2023-03-31T17:30:07.360Z,17.45
2023-03-31T17:32:36.033Z,17.75
2023-03-31T17:35:04.593Z,16.17
2023-03-31T17:37:33.182Z,15.07
2023-03-31T17:40:01.470Z,14.63
2023-03-31T17:42:31.745Z,17.77
2023-03-31T17:44:59.961Z,18.85
2023-03-31T17:47:28.347Z,17.00
2023-03-31T17:49:56.799Z,28.90
2023-03-31T17:52:25.200Z,23.23
2023-03-31T17:54:53.530Z,23.20
2023-03-31T17:57:21.674Z,16.73
2023-03-31T17:59:51.453Z,22.77
2023-03-31T18:02:19.925Z,16.92
2023-03-31T18:04:48.059Z,24.35
2023-03-31T18:07:18.295Z,16.00
2023-03-31T18:09:46.836Z,24.52
2023-03-31T18:12:15.075Z,17.23
2023-03-31T18:14:43.485Z,17.27
2023-03-31T18:17:15.059Z,16.63
2023-03-31T18:19:43.267Z,17.97
2023-03-31T18:22:11.990Z,24.92
2023-03-31T18:24:40.945Z,24.00
2023-03-31T18:27:09.185Z,34.70
2023-03-31T18:29:39.519Z,19.07
2023-03-31T18:32:08.076Z,18.13
2023-03-31T18:34:38.502Z,17.25
2023-03-31T18:37:06.718Z,21.30
2023-03-31T18:39:35.806Z,15.67
2023-03-31T18:42:04.317Z,15.13
2023-03-31T18:44:32.782Z,16.47
2023-03-31T18:47:01.056Z,17.77
2023-03-31T18:49:30.083Z,17.37
2023-03-31T18:51:59.723Z,15.07
2023-03-31T18:54:28.092Z,28.27
2023-03-31T18:56:56.952Z,62.70
2023-03-31T18:59:25.523Z,13.43
2023-03-31T19:01:53.819Z,12.13
2023-03-31T19:04:21.994Z,13.33
2023-03-31T19:06:50.437Z,16.20
2023-03-31T19:09:22.400Z,10.80
2023-03-31T19:11:50.557Z,11.90
2023-03-31T19:14:18.654Z,9.57
2023-03-31T19:16:46.959Z,11.07
2023-03-31T19:19:15.341Z,8.87
2023-03-31T19:21:44.887Z,9.40
2023-03-31T19:24:13.393Z,8.67
2023-03-31T19:26:43.787Z,10.43
2023-03-31T19:29:12.857Z,9.30
2023-03-31T19:31:41.585Z,8.80
2023-03-31T19:34:12.335Z,8.80
2023-03-31T19:36:40.507Z,10.33
2023-03-31T19:39:08.700Z,10.40
2023-03-31T19:41:37.125Z,8.30
2023-03-31T19:44:06.920Z,8.00
2023-03-31T19:46:35.124Z,7.27
2023-03-31T19:49:05.623Z,8.07
2023-03-31T19:51:33.765Z,6.97
2023-03-31T19:54:02.121Z,7.33
2023-03-31T19:56:31.658Z,6.47
2023-03-31T19:59:00.362Z,6.20
2023-03-31T20:01:30.015Z,6.30
2023-03-31T20:03:58.879Z,7.70
2023-03-31T20:06:32.061Z,6.40
2023-03-31T20:09:01.506Z,7.53
2023-03-31T20:11:32.225Z,9.77
2023-03-31T20:14:00.956Z,7.83
2023-03-31T20:16:32.273Z,6.97
2023-03-31T20:19:04.187Z,7.37
2023-03-31T20:21:35.511Z,6.20
2023-03-31T20:24:04.978Z,7.57
2023-03-31T20:26:36.623Z,6.27
2023-03-31T20:29:05.217Z,6.77
2023-03-31T20:31:41.220Z,7.83
2023-03-31T20:34:12.998Z,7.43
2023-03-31T20:36:42.475Z,6.73
2023-03-31T20:39:12.430Z,5.27
2023-03-31T20:41:41.552Z,5.83
2023-03-31T20:44:13.584Z,5.73
2023-03-31T20:46:46.716Z,5.60
2023-03-31T20:49:15.204Z,6.03
2023-03-31T20:51:45.276Z,6.07
2023-03-31T20:54:13.693Z,6.00
2023-03-31T20:56:43.027Z,5.20
2023-03-31T20:59:13.442Z,5.70
2023-03-31T21:01:43.037Z,5.00
2023-03-31T21:04:13.373Z,5.80
2023-03-31T21:06:43.500Z,6.27
2023-03-31T21:09:13.069Z,5.47
2023-03-31T21:11:41.750Z,5.80
2023-03-31T21:14:14.234Z,5.27
2023-03-31T21:16:43.016Z,5.40
2023-03-31T21:19:12.869Z,5.10
2023-03-31T21:21:43.595Z,4.87
2023-03-31T21:24:13.944Z,5.27
2023-03-31T21:26:42.178Z,5.10
2023-03-31T21:29:10.741Z,4.87
2023-03-31T21:31:38.976Z,4.67
2023-03-31T21:34:07.242Z,5.00
2023-03-31T21:36:36.863Z,4.67
2023-03-31T21:39:05.474Z,4.50
2023-03-31T21:41:33.701Z,4.43
2023-03-31T21:44:03.490Z,4.77
2023-03-31T21:46:33.821Z,5.47
2023-03-31T21:49:02.616Z,5.63
2023-03-31T21:51:31.124Z,5.50
2023-03-31T21:54:00.726Z,5.23
2023-03-31T21:56:31.997Z,5.57
2023-03-31T21:59:01.515Z,5.90
2023-03-31T22:01:29.765Z,5.10
2023-03-31T22:03:58.059Z,6.03
2023-03-31T22:06:26.614Z,6.07
2023-03-31T22:08:54.863Z,5.67
2023-03-31T22:11:24.936Z,5.70
2023-03-31T22:13:53.226Z,5.70
2023-03-31T22:16:23.884Z,5.93
2023-03-31T22:18:53.036Z,5.63
2023-03-31T22:21:22.959Z,6.40
2023-03-31T22:23:53.759Z,6.17
2023-03-31T22:26:22.068Z,6.37
2023-03-31T22:28:52.464Z,5.80
2023-03-31T22:31:20.774Z,5.83
2023-03-31T22:33:49.272Z,6.50
2023-03-31T22:36:17.396Z,6.50
2023-03-31T22:38:45.721Z,6.70
2023-03-31T22:41:13.915Z,6.50
2023-03-31T22:43:44.559Z,6.03
2023-03-31T22:46:16.354Z,5.97
2023-03-31T22:48:44.402Z,6.20
2023-03-31T22:51:12.464Z,6.63
2023-03-31T22:53:40.771Z,6.60
2023-03-31T22:56:11.982Z,5.87
2023-03-31T22:58:40.330Z,6.43
2023-03-31T23:01:09.953Z,5.90
2023-03-31T23:03:40.085Z,6.40
2023-03-31T23:06:08.750Z,6.90
2023-03-31T23:08:37.938Z,6.37
2023-03-31T23:11:07.714Z,6.23
2023-03-31T23:13:36.580Z,6.03
2023-03-31T23:16:06.755Z,6.20
2023-03-31T23:18:36.018Z,5.97
2023-03-31T23:21:07.825Z,6.20
2023-03-31T23:23:35.966Z,6.57
2023-03-31T23:26:04.624Z,6.07
2023-03-31T23:28:35.604Z,6.17
2023-03-31T23:31:07.462Z,6.43
2023-03-31T23:33:35.583Z,6.67
2023-03-31T23:36:05.882Z,6.27
2023-03-31T23:38:35.963Z,6.10
2023-03-31T23:41:05.408Z,6.60
2023-03-31T23:43:33.601Z,6.70
2023-03-31T23:46:03.026Z,6.40
2023-03-31T23:48:31.170Z,6.77
2023-03-31T23:50:59.279Z,7.60
2023-03-31T23:53:27.591Z,7.10
2023-03-31T23:55:59.248Z,6.80
2023-03-31T23:58:28.186Z,6.90
